createdAt,value
2022-08-21T00:00:23.037Z,1.88
2022-08-21T00:03:05.404Z,2.17
2022-08-21T00:05:33.537Z,2.30
2022-08-21T00:08:00.169Z,2.80
2022-08-21T00:10:27.035Z,2.70
2022-08-21T00:12:54.061Z,2.25
2022-08-21T00:15:27.041Z,2.45
2022-08-21T00:17:54.794Z,1.83
2022-08-21T00:20:22.359Z,2.20
2022-08-21T00:22:49.573Z,2.47
2022-08-21T00:25:17.166Z,2.55
2022-08-21T00:27:47.493Z,2.35
2022-08-21T00:30:23.174Z,1.90
2022-08-21T00:32:50.933Z,1.90
2022-08-21T00:35:20.496Z,2.17
2022-08-21T00:37:47.132Z,2.28
2022-08-21T00:40:17.124Z,2.30
2022-08-21T00:45:21.405Z,2.67
2022-08-21T00:47:47.993Z,1.73
2022-08-21T00:50:22.161Z,1.88
2022-08-21T00:52:52.080Z,1.90
2022-08-21T00:55:19.053Z,1.90
2022-08-21T00:57:50.548Z,2.30
2022-08-21T01:00:22.790Z,2.08
2022-08-21T01:02:49.410Z,1.90
2022-08-21T01:05:17.464Z,2.80
2022-08-21T01:07:45.772Z,2.40
2022-08-21T01:10:23.729Z,2.45
2022-08-21T01:12:53.047Z,2.30
2022-08-21T01:15:21.236Z,1.83
2022-08-21T01:17:49.989Z,1.65
2022-08-21T01:20:17.470Z,2.22
2022-08-21T01:22:44.235Z,1.95
2022-08-21T01:25:13.094Z,2.17
2022-08-21T01:27:40.030Z,1.77
2022-08-21T01:30:35.734Z,2.22
2022-08-21T01:33:02.271Z,2.42
2022-08-21T01:35:28.862Z,1.95
2022-08-21T01:37:55.517Z,2.30
2022-08-21T01:40:22.765Z,1.92
2022-08-21T01:42:49.578Z,2.22
2022-08-21T01:45:16.834Z,2.70
2022-08-21T01:47:44.388Z,2.72
2022-08-21T01:50:18.115Z,2.10
2022-08-21T01:52:45.038Z,1.88
2022-08-21T01:55:13.133Z,2.72
2022-08-21T01:57:39.822Z,2.28
2022-08-21T02:00:10.863Z,1.90
2022-08-21T02:02:38.010Z,2.22
2022-08-21T02:05:05.887Z,1.75
2022-08-21T02:07:45.526Z,2.47
2022-08-21T02:10:16.777Z,1.77
2022-08-21T02:12:43.513Z,3.10
2022-08-21T02:15:10.775Z,2.35
2022-08-21T02:17:43.045Z,2.50
2022-08-21T02:20:12.905Z,2.13
2022-08-21T02:22:39.462Z,2.17
2022-08-21T02:25:06.482Z,2.75
2022-08-21T02:27:42.816Z,1.98
2022-08-21T02:30:14.756Z,2.55
2022-08-21T02:32:41.903Z,2.70
2022-08-21T02:35:09.064Z,2.35
2022-08-21T02:37:42.874Z,2.45
2022-08-21T02:40:12.123Z,2.15
2022-08-21T02:42:39.948Z,2.40
2022-08-21T02:45:08.109Z,2.13
2022-08-21T02:47:34.714Z,2.35
2022-08-21T02:50:01.331Z,2.78
2022-08-21T02:52:28.140Z,2.25
2022-08-21T02:54:54.666Z,2.47
2022-08-21T02:57:21.228Z,2.30
2022-08-21T02:59:48.006Z,2.70
2022-08-21T03:02:14.962Z,2.65
2022-08-21T03:04:46.432Z,2.25
2022-08-21T03:07:13.307Z,2.30
2022-08-21T03:09:45.564Z,2.63
2022-08-21T03:12:22.098Z,2.33
2022-08-21T03:14:48.671Z,2.10
2022-08-21T03:17:15.219Z,1.90
2022-08-21T03:19:41.879Z,2.05
2022-08-21T03:22:08.441Z,1.77
2022-08-21T03:24:35.187Z,2.22
2022-08-21T03:27:01.853Z,2.17
2022-08-21T03:29:28.730Z,2.05
2022-08-21T03:31:55.229Z,2.28
2022-08-21T03:34:22.295Z,1.50
2022-08-21T03:36:49.975Z,2.13
2022-08-21T03:39:19.671Z,2.42
2022-08-21T03:41:46.261Z,2.05
2022-08-21T03:44:12.882Z,2.65
2022-08-21T03:46:41.101Z,1.88
2022-08-21T03:49:08.256Z,2.47
2022-08-21T03:51:36.440Z,2.45
2022-08-21T03:54:03.501Z,1.95
2022-08-21T03:56:30.309Z,2.40
2022-08-21T03:58:57.443Z,2.22
2022-08-21T04:01:24.324Z,2.47
2022-08-21T04:03:51.043Z,2.47
2022-08-21T04:06:17.625Z,2.50
2022-08-21T04:08:44.379Z,2.28
2022-08-21T04:11:13.447Z,2.47
2022-08-21T04:13:44.336Z,2.53
2022-08-21T04:16:11.634Z,1.90
2022-08-21T04:18:38.205Z,2.85
2022-08-21T04:21:05.923Z,2.00
2022-08-21T04:23:38.072Z,1.90
2022-08-21T04:26:04.607Z,2.10
2022-08-21T04:28:31.310Z,2.17
2022-08-21T04:30:58.033Z,2.65
2022-08-21T04:33:25.281Z,2.35
2022-08-21T04:35:52.007Z,1.98
2022-08-21T04:38:19.812Z,2.10
2022-08-21T04:40:47.097Z,2.30
2022-08-21T04:43:13.668Z,2.00
2022-08-21T04:45:43.950Z,2.03
2022-08-21T04:48:14.186Z,2.17
2022-08-21T04:50:55.170Z,1.73
2022-08-21T04:53:27.479Z,2.28
2022-08-21T04:55:56.447Z,2.20
2022-08-21T04:58:27.272Z,1.77
2022-08-21T05:01:08.655Z,1.83
2022-08-21T05:03:38.087Z,1.73
2022-08-21T05:06:08.042Z,2.35
2022-08-21T05:11:03.274Z,1.52
2022-08-21T05:13:30.362Z,1.98
2022-08-21T05:15:57.201Z,2.08
2022-08-21T05:18:24.310Z,1.67
2022-08-21T05:20:51.667Z,1.70
2022-08-21T05:23:18.264Z,1.88
2022-08-21T05:25:44.952Z,1.95
2022-08-21T05:28:13.195Z,2.20
2022-08-21T05:30:40.550Z,2.10
2022-08-21T05:33:08.044Z,1.90
2022-08-21T05:35:35.385Z,2.13
2022-08-21T05:38:02.889Z,1.67
2022-08-21T05:40:29.814Z,1.95
2022-08-21T05:42:57.221Z,1.60
2022-08-21T05:45:42.159Z,1.70
2022-08-21T05:48:16.105Z,1.88
2022-08-21T05:50:43.338Z,1.88
2022-08-21T05:53:10.876Z,1.92
2022-08-21T05:55:44.177Z,1.90
2022-08-21T05:58:12.695Z,2.08
2022-08-21T06:00:39.465Z,1.45
2022-08-21T06:03:12.236Z,1.20
2022-08-21T06:05:38.815Z,1.88
2022-08-21T06:08:05.795Z,1.30
2022-08-21T06:10:32.450Z,1.52
2022-08-21T06:12:59.142Z,2.10
2022-08-21T06:15:26.224Z,1.45
2022-08-21T06:17:53.757Z,1.50
2022-08-21T06:20:20.442Z,2.60
2022-08-21T06:22:47.011Z,2.25
2022-08-21T06:25:13.663Z,1.75
2022-08-21T06:27:40.573Z,1.08
2022-08-21T06:30:08.323Z,1.38
2022-08-21T06:32:36.060Z,1.30
2022-08-21T06:35:02.936Z,1.60
2022-08-21T06:37:30.134Z,1.33
2022-08-21T06:39:56.737Z,1.27
2022-08-21T06:42:27.935Z,1.25
2022-08-21T06:44:55.215Z,1.13
2022-08-21T06:47:21.799Z,1.20
2022-08-21T06:49:48.381Z,1.20
2022-08-21T06:52:16.449Z,1.33
2022-08-21T06:54:43.431Z,1.48
2022-08-21T06:57:10.100Z,0.88
2022-08-21T06:59:36.760Z,1.10
2022-08-21T07:02:04.088Z,1.00
2022-08-21T07:04:31.000Z,1.17
2022-08-21T07:06:57.583Z,1.27
2022-08-21T07:09:24.941Z,1.40
2022-08-21T07:11:54.526Z,1.50
2022-08-21T07:14:21.165Z,1.38
2022-08-21T07:16:48.795Z,1.13
2022-08-21T07:19:15.591Z,1.05
2022-08-21T07:21:42.260Z,0.75
2022-08-21T07:24:08.870Z,1.45
2022-08-21T07:26:35.900Z,1.02
2022-08-21T07:29:02.721Z,1.10
2022-08-21T07:31:29.983Z,1.48
2022-08-21T07:33:56.953Z,1.33
2022-08-21T07:36:24.473Z,1.35
2022-08-21T07:38:52.923Z,1.30
2022-08-21T07:41:29.050Z,1.15
2022-08-21T07:43:59.252Z,1.10
2022-08-21T07:46:27.002Z,1.38
2022-08-21T07:48:53.940Z,1.10
2022-08-21T07:51:22.812Z,1.83
2022-08-21T07:53:52.615Z,2.10
2022-08-21T07:56:20.082Z,1.50
2022-08-21T07:58:46.888Z,1.13
2022-08-21T08:01:14.659Z,1.52
2022-08-21T08:03:41.943Z,1.50
2022-08-21T08:06:13.035Z,1.38
2022-08-21T08:08:41.609Z,1.15
2022-08-21T08:11:11.896Z,1.42
2022-08-21T08:13:45.543Z,1.10
2022-08-21T08:16:12.644Z,1.40
2022-08-21T08:18:39.614Z,1.40
2022-08-21T08:21:06.616Z,1.00
2022-08-21T08:23:33.872Z,1.55
2022-08-21T08:26:00.598Z,1.58
2022-08-21T08:28:28.151Z,1.35
2022-08-21T08:30:54.780Z,1.60
2022-08-21T08:33:21.641Z,1.25
2022-08-21T08:35:50.946Z,1.48
2022-08-21T08:38:20.790Z,1.40
2022-08-21T08:41:06.886Z,1.10
2022-08-21T08:43:35.252Z,1.42
2022-08-21T08:46:11.387Z,1.67
2022-08-21T08:49:05.901Z,2.92
2022-08-21T08:51:33.994Z,2.30
2022-08-21T08:54:04.355Z,1.30
2022-08-21T08:56:36.186Z,1.35
2022-08-21T08:59:20.633Z,1.65
2022-08-21T09:01:47.376Z,1.55
2022-08-21T09:04:20.232Z,1.17
2022-08-21T09:07:04.857Z,1.00
2022-08-21T09:09:46.570Z,0.93
2022-08-21T09:12:49.928Z,1.25
2022-08-21T09:15:17.825Z,0.93
2022-08-21T09:18:24.108Z,1.67
2022-08-21T09:21:12.870Z,1.80
2022-08-21T09:23:44.594Z,1.60
2022-08-21T09:26:20.678Z,1.50
2022-08-21T09:28:54.417Z,2.20
2022-08-21T09:31:38.389Z,2.13
2022-08-21T09:34:07.867Z,1.70
2022-08-21T09:36:40.377Z,1.48
2022-08-21T09:39:08.090Z,1.25
2022-08-21T09:41:36.597Z,1.42
2022-08-21T09:44:05.546Z,1.77
2022-08-21T09:46:32.436Z,1.30
2022-08-21T09:49:02.331Z,0.70
2022-08-21T09:51:38.625Z,1.55
2022-08-21T09:54:08.324Z,1.10
2022-08-21T09:56:57.452Z,1.70
2022-08-21T09:59:36.455Z,0.95
2022-08-21T10:02:32.295Z,1.45
2022-08-21T10:05:10.009Z,1.10
2022-08-21T10:07:39.604Z,2.75
2022-08-21T10:12:55.074Z,1.30
2022-08-21T10:15:58.921Z,1.80
2022-08-21T10:18:54.757Z,1.13
2022-08-21T10:21:32.018Z,1.25
2022-08-21T10:24:31.367Z,1.17
2022-08-21T10:27:06.805Z,1.25
2022-08-21T10:30:00.725Z,1.42
2022-08-21T10:32:45.334Z,1.33
2022-08-21T10:35:20.948Z,1.50
2022-08-21T10:37:56.938Z,1.45
2022-08-21T10:40:29.980Z,1.10
2022-08-21T10:43:11.629Z,1.40
2022-08-21T10:46:00.632Z,1.17
2022-08-21T10:48:43.277Z,0.98
2022-08-21T10:51:29.334Z,1.15
2022-08-21T10:54:24.540Z,1.20
2022-08-21T10:57:00.069Z,1.10
2022-08-21T10:59:28.358Z,0.80
2022-08-21T11:02:16.331Z,1.50
2022-08-21T11:05:02.264Z,1.38
2022-08-21T11:07:46.300Z,1.05
2022-08-21T11:10:40.886Z,1.13
2022-08-21T11:13:30.698Z,1.40
2022-08-21T11:16:11.664Z,1.10
2022-08-21T11:19:06.772Z,1.60
2022-08-21T11:21:43.094Z,1.23
2022-08-21T11:24:52.556Z,1.27
2022-08-21T11:27:28.458Z,1.33
2022-08-21T11:29:57.890Z,1.25
2022-08-21T11:32:36.276Z,1.10
2022-08-21T11:35:09.219Z,1.10
2022-08-21T11:37:53.946Z,1.40
2022-08-21T11:40:20.503Z,1.45
2022-08-21T11:43:14.031Z,1.10
2022-08-21T11:45:51.465Z,1.70
2022-08-21T11:48:32.956Z,1.95
2022-08-21T11:51:03.480Z,1.58
2022-08-21T11:53:39.113Z,1.60
2022-08-21T11:56:46.202Z,1.20
2022-08-21T11:59:21.849Z,1.23
2022-08-21T12:01:51.729Z,1.27
2022-08-21T12:04:26.203Z,1.17
2022-08-21T12:06:53.105Z,1.33
2022-08-21T12:09:25.652Z,1.73
2022-08-21T12:12:06.882Z,1.42
2022-08-21T12:14:45.990Z,1.40
2022-08-21T12:17:24.691Z,1.65
2022-08-21T12:20:26.424Z,1.88
2022-08-21T12:22:55.886Z,1.80
2022-08-21T12:25:23.412Z,1.60
2022-08-21T12:28:03.718Z,2.50
2022-08-21T12:30:30.210Z,1.90
2022-08-21T12:33:03.045Z,1.80
2022-08-21T12:35:39.431Z,2.05
2022-08-21T12:38:28.705Z,1.77
2022-08-21T12:41:18.398Z,2.30
2022-08-21T12:43:51.849Z,1.63
2022-08-21T12:46:30.788Z,1.98
2022-08-21T12:51:57.530Z,2.50
2022-08-21T12:54:31.241Z,1.98
2022-08-21T12:57:02.757Z,1.63
2022-08-21T12:59:30.677Z,1.58
2022-08-21T13:01:59.641Z,1.63
2022-08-21T13:07:19.041Z,1.63
2022-08-21T13:09:53.577Z,1.52
2022-08-21T13:12:23.241Z,1.77
2022-08-21T13:14:52.558Z,1.75
2022-08-21T13:17:25.688Z,1.25
2022-08-21T13:20:03.088Z,1.63
2022-08-21T13:22:34.584Z,1.90
2022-08-21T13:25:06.637Z,2.20
2022-08-21T13:27:35.229Z,2.00
2022-08-21T13:30:21.146Z,1.15
2022-08-21T13:32:52.574Z,1.88
2022-08-21T13:35:32.655Z,1.70
2022-08-21T13:38:00.294Z,1.52
2022-08-21T13:40:33.697Z,1.80
2022-08-21T13:43:01.375Z,1.67
2022-08-21T13:45:33.838Z,1.98
2022-08-21T13:48:06.666Z,1.92
2022-08-21T13:50:43.085Z,1.73
2022-08-21T13:53:24.370Z,1.70
2022-08-21T13:55:51.231Z,1.80
2022-08-21T13:58:32.682Z,2.22
2022-08-21T14:01:01.652Z,1.85
2022-08-21T14:03:39.145Z,1.70
2022-08-21T14:06:35.652Z,1.55
2022-08-21T14:09:10.915Z,2.08
2022-08-21T14:11:38.009Z,2.50
2022-08-21T14:14:32.236Z,2.13
2022-08-21T14:17:24.553Z,1.80
2022-08-21T14:19:49.643Z,1.80
2022-08-21T14:22:44.526Z,1.95
2022-08-21T14:25:20.087Z,2.53
2022-08-21T14:27:55.858Z,1.98
2022-08-21T14:30:29.855Z,2.05
2022-08-21T14:32:57.095Z,2.13
2022-08-21T14:35:24.583Z,2.55
2022-08-21T14:37:51.896Z,2.05
2022-08-21T14:40:19.584Z,2.40
2022-08-21T14:42:47.463Z,2.10
2022-08-21T14:45:27.581Z,1.98
2022-08-21T14:47:55.231Z,1.88
2022-08-21T14:50:21.841Z,2.22
2022-08-21T14:52:48.651Z,2.20
2022-08-21T14:55:18.103Z,2.17
2022-08-21T14:57:48.201Z,1.92
2022-08-21T15:00:18.631Z,1.85
2022-08-21T15:02:45.586Z,2.25
2022-08-21T15:05:13.242Z,1.67
2022-08-21T15:10:09.083Z,1.77
2022-08-21T15:12:37.045Z,1.88
2022-08-21T15:15:06.341Z,2.03
2022-08-21T15:17:33.390Z,2.03
2022-08-21T15:19:59.982Z,1.90
2022-08-21T15:22:28.543Z,2.22
2022-08-21T15:24:55.274Z,2.30
2022-08-21T15:27:21.875Z,2.20
2022-08-21T15:29:48.734Z,1.83
2022-08-21T15:32:18.239Z,2.20
2022-08-21T15:34:45.054Z,2.45
2022-08-21T15:37:11.790Z,2.25
2022-08-21T15:39:39.673Z,2.28
2022-08-21T15:44:39.131Z,2.35
2022-08-21T15:47:07.856Z,2.40
2022-08-21T15:49:34.356Z,2.60
2022-08-21T15:52:00.991Z,2.78
2022-08-21T15:54:27.526Z,2.88
2022-08-21T15:56:54.256Z,2.78
2022-08-21T15:59:23.130Z,2.97
2022-08-21T16:01:53.553Z,3.00
2022-08-21T16:04:26.959Z,2.72
2022-08-21T16:06:59.215Z,2.97
2022-08-21T16:09:26.513Z,3.03
2022-08-21T16:11:54.160Z,2.92
2022-08-21T16:14:20.705Z,2.55
2022-08-21T16:16:47.322Z,2.63
2022-08-21T16:19:14.716Z,2.58
2022-08-21T16:21:41.370Z,2.80
2022-08-21T16:24:07.980Z,2.60
2022-08-21T16:26:34.680Z,2.65
2022-08-21T16:29:03.166Z,3.33
2022-08-21T16:31:31.733Z,2.60
2022-08-21T16:33:59.689Z,2.50
2022-08-21T16:36:27.078Z,2.60
2022-08-21T16:38:55.484Z,2.90
2022-08-21T16:41:23.978Z,2.78
2022-08-21T16:43:51.800Z,2.28
2022-08-21T16:46:19.569Z,1.85
2022-08-21T16:48:46.459Z,2.20
2022-08-21T16:51:16.524Z,2.17
2022-08-21T16:53:43.811Z,2.60
2022-08-21T16:56:12.540Z,2.30
2022-08-21T16:58:43.034Z,1.75
2022-08-21T17:01:12.743Z,2.13
2022-08-21T17:06:09.657Z,1.95
2022-08-21T17:08:37.274Z,2.40
2022-08-21T17:11:10.715Z,2.92
2022-08-21T17:13:38.643Z,2.00
2022-08-21T17:16:06.404Z,2.15
2022-08-21T17:18:33.014Z,1.90
2022-08-21T17:20:59.596Z,2.00
2022-08-21T17:23:26.274Z,1.70
2022-08-21T17:25:53.660Z,2.10
2022-08-21T17:28:34.404Z,1.90
2022-08-21T17:31:02.461Z,2.10
2022-08-21T17:33:43.361Z,2.13
2022-08-21T17:36:10.159Z,2.08
2022-08-21T17:38:37.730Z,1.80
2022-08-21T17:41:06.342Z,1.83
2022-08-21T17:43:32.961Z,1.55
2022-08-21T17:45:59.742Z,1.80
2022-08-21T17:48:26.356Z,2.03
2022-08-21T17:50:53.198Z,2.22
2022-08-21T17:53:19.836Z,1.65
2022-08-21T17:55:46.413Z,2.05
2022-08-21T17:58:15.417Z,1.90
2022-08-21T18:00:42.541Z,2.43
2022-08-21T18:03:18.206Z,1.80
2022-08-21T18:05:47.026Z,2.42
2022-08-21T18:08:13.719Z,3.75
2022-08-21T18:10:43.233Z,2.47
2022-08-21T18:13:12.645Z,2.35
2022-08-21T18:15:39.234Z,2.42
2022-08-21T18:18:06.877Z,2.70
2022-08-21T18:20:33.735Z,3.45
2022-08-21T18:23:00.659Z,4.32
2022-08-21T18:25:28.706Z,3.10
2022-08-21T18:27:55.585Z,3.15
2022-08-21T18:30:24.154Z,2.85
2022-08-21T18:32:54.203Z,3.15
2022-08-21T18:35:21.847Z,2.83
2022-08-21T18:37:48.471Z,2.30
2022-08-21T18:40:15.773Z,2.67
2022-08-21T18:42:55.251Z,2.33
2022-08-21T18:45:22.552Z,1.85
2022-08-21T18:47:51.985Z,2.63
2022-08-21T18:50:24.888Z,3.65
2022-08-21T18:52:53.564Z,3.83
2022-08-21T18:55:21.287Z,3.78
2022-08-21T18:57:47.903Z,3.78
2022-08-21T19:00:20.984Z,2.95
2022-08-21T19:02:47.525Z,2.85
2022-08-21T19:08:04.058Z,2.72
2022-08-21T19:10:30.672Z,2.28
2022-08-21T19:12:59.616Z,2.85
2022-08-21T19:15:26.826Z,2.83
2022-08-21T19:17:54.580Z,3.17
2022-08-21T19:20:36.460Z,2.80
2022-08-21T19:23:06.526Z,2.92
2022-08-21T19:25:34.722Z,2.50
2022-08-21T19:31:04.697Z,2.95
2022-08-21T19:33:39.764Z,2.75
2022-08-21T19:36:08.741Z,2.42
2022-08-21T19:38:36.643Z,3.22
2022-08-21T19:41:06.098Z,3.30
2022-08-21T19:43:44.523Z,2.58
2022-08-21T19:46:13.143Z,3.00
2022-08-21T19:48:40.611Z,2.45
2022-08-21T19:51:07.469Z,2.72
2022-08-21T19:53:34.808Z,2.83
2022-08-21T19:56:01.378Z,3.05
2022-08-21T19:58:27.887Z,2.83
2022-08-21T20:00:54.562Z,2.63
2022-08-21T20:03:21.474Z,3.20
2022-08-21T20:05:48.074Z,3.15
2022-08-21T20:08:20.248Z,4.32
2022-08-21T20:10:49.961Z,3.42
2022-08-21T20:13:21.521Z,2.85
2022-08-21T20:15:50.658Z,3.28
2022-08-21T20:18:18.096Z,3.22
2022-08-21T20:20:46.515Z,3.28
2022-08-21T20:23:15.731Z,3.03
2022-08-21T20:25:44.543Z,3.10
2022-08-21T20:28:11.406Z,3.88
2022-08-21T20:30:38.241Z,2.90
2022-08-21T20:33:14.065Z,3.10
2022-08-21T20:35:43.587Z,3.45
2022-08-21T20:38:10.182Z,2.95
2022-08-21T20:40:40.598Z,3.60
2022-08-21T20:43:08.398Z,2.80
2022-08-21T20:45:39.822Z,3.22
2022-08-21T20:48:17.236Z,2.78
2022-08-21T20:50:55.367Z,3.45
2022-08-21T20:53:57.497Z,3.05
2022-08-21T20:56:43.250Z,3.63
2022-08-21T20:59:21.466Z,3.70
2022-08-21T21:01:48.881Z,3.05
2022-08-21T21:04:35.067Z,3.20
2022-08-21T21:07:09.183Z,2.67
2022-08-21T21:09:42.831Z,3.70
2022-08-21T21:12:27.970Z,3.67
2022-08-21T21:14:58.975Z,3.35
2022-08-21T21:17:42.445Z,3.60
2022-08-21T21:20:16.395Z,3.53
2022-08-21T21:22:50.958Z,3.78
2022-08-21T21:25:39.737Z,3.25
2022-08-21T21:28:13.010Z,3.83
2022-08-21T21:30:46.749Z,3.45
2022-08-21T21:33:16.409Z,4.18
2022-08-21T21:35:54.112Z,3.28
2022-08-21T21:38:26.587Z,3.30
2022-08-21T21:41:17.828Z,4.00
2022-08-21T21:44:17.733Z,4.22
2022-08-21T21:47:09.651Z,3.63
2022-08-21T21:49:49.670Z,3.33
2022-08-21T21:52:29.104Z,3.92
2022-08-21T21:55:23.649Z,3.60
2022-08-21T21:58:08.929Z,2.83
2022-08-21T22:00:51.997Z,3.40
2022-08-21T22:03:35.802Z,3.67
2022-08-21T22:06:24.994Z,3.50
2022-08-21T22:09:12.204Z,3.22
2022-08-21T22:11:44.743Z,3.20
2022-08-21T22:14:15.816Z,3.45
2022-08-21T22:16:46.174Z,3.78
2022-08-21T22:19:18.519Z,3.28
2022-08-21T22:21:51.947Z,4.15
2022-08-21T22:24:27.741Z,3.30
2022-08-21T22:27:06.621Z,3.65
2022-08-21T22:29:57.709Z,3.80
2022-08-21T22:32:37.507Z,3.78
2022-08-21T22:35:12.838Z,3.20
2022-08-21T22:37:44.877Z,4.15
2022-08-21T22:40:22.232Z,3.10
2022-08-21T22:43:22.242Z,3.83
2022-08-21T22:45:54.419Z,2.85
2022-08-21T22:48:23.059Z,3.55
2022-08-21T22:51:10.495Z,3.28
2022-08-21T22:53:41.083Z,4.47
2022-08-21T22:56:09.267Z,3.45
2022-08-21T22:58:51.728Z,3.58
2022-08-21T23:01:20.994Z,3.58
2022-08-21T23:03:49.712Z,3.53
2022-08-21T23:06:22.442Z,3.80
2022-08-21T23:08:49.935Z,4.15
2022-08-21T23:11:20.959Z,3.53
2022-08-21T23:13:52.014Z,3.33
2022-08-21T23:16:21.160Z,3.55
2022-08-21T23:19:19.052Z,4.33
2022-08-21T23:25:03.826Z,3.70
2022-08-21T23:27:54.145Z,3.70
2022-08-21T23:30:39.606Z,3.67
2022-08-21T23:33:34.835Z,3.33
2022-08-21T23:36:29.713Z,3.63
2022-08-21T23:39:21.983Z,3.92
2022-08-21T23:42:29.374Z,4.55
2022-08-21T23:45:13.714Z,3.83
2022-08-21T23:47:56.350Z,3.58
2022-08-21T23:50:29.518Z,3.53
2022-08-21T23:53:14.343Z,4.05
2022-08-21T23:55:57.902Z,4.05
2022-08-21T23:58:48.072Z,3.83
